createdAt,value
2019-03-03T00:00:14.250Z,5.51
2019-03-03T00:01:14.199Z,5.49
2019-03-03T00:02:14.190Z,5.49
2019-03-03T00:03:14.181Z,5.49
2019-03-03T00:04:14.172Z,5.57
2019-03-03T00:05:14.185Z,5.51
2019-03-03T00:06:14.142Z,5.54
2019-03-03T00:07:14.133Z,5.54
2019-03-03T00:08:14.125Z,5.58
2019-03-03T00:09:14.119Z,5.57
2019-03-03T00:10:14.110Z,5.61
2019-03-03T00:11:14.131Z,5.63
2019-03-03T00:12:14.071Z,5.54
2019-03-03T00:13:14.073Z,5.64
2019-03-03T00:14:14.063Z,5.61
2019-03-03T00:15:14.061Z,5.57
2019-03-03T00:16:14.061Z,5.56
2019-03-03T00:17:14.029Z,5.54
2019-03-03T00:18:14.011Z,5.61
2019-03-03T00:19:14.005Z,5.57
2019-03-03T00:20:13.995Z,5.65
2019-03-03T00:21:14.011Z,5.56
2019-03-03T00:22:13.978Z,5.63
2019-03-03T00:23:13.969Z,5.57
2019-03-03T00:24:13.980Z,5.61
2019-03-03T00:25:13.939Z,5.63
2019-03-03T00:26:13.930Z,5.64
2019-03-03T00:27:13.957Z,5.65
2019-03-03T00:28:13.915Z,5.58
2019-03-03T00:29:13.903Z,5.65
2019-03-03T00:30:13.883Z,5.58
2019-03-03T00:31:13.885Z,5.65
2019-03-03T00:32:13.894Z,5.54
2019-03-03T00:33:13.862Z,5.64
2019-03-03T00:34:13.851Z,5.61
2019-03-03T00:35:13.830Z,5.63
2019-03-03T00:36:13.825Z,5.72
2019-03-03T00:37:13.843Z,5.61
2019-03-03T00:38:13.867Z,5.65
2019-03-03T00:39:13.794Z,5.67
2019-03-03T00:40:13.791Z,5.72
2019-03-03T00:41:13.771Z,5.75
2019-03-03T00:42:13.780Z,5.68
2019-03-03T00:43:13.758Z,5.78
2019-03-03T00:44:13.751Z,5.75
2019-03-03T00:45:13.723Z,5.76
2019-03-03T00:46:13.727Z,5.76
2019-03-03T00:47:13.781Z,5.79
2019-03-03T00:48:13.693Z,5.82
2019-03-03T00:49:13.681Z,5.82
2019-03-03T00:50:13.681Z,5.78
2019-03-03T00:51:13.663Z,5.81
2019-03-03T00:52:14.279Z,5.79
2019-03-03T00:53:13.814Z,5.76
2019-03-03T00:54:13.630Z,5.89
2019-03-03T00:55:13.617Z,5.90
2019-03-03T00:56:13.607Z,5.82
2019-03-03T00:57:13.598Z,5.90
2019-03-03T00:58:13.602Z,5.86
2019-03-03T00:59:13.578Z,5.83
2019-03-03T01:00:13.570Z,5.97
2019-03-03T01:01:13.568Z,5.89
2019-03-03T01:02:13.540Z,5.91
2019-03-03T01:03:13.580Z,5.94
2019-03-03T01:04:13.537Z,5.91
2019-03-03T01:05:13.518Z,6.00
2019-03-03T01:06:13.507Z,5.96
2019-03-03T01:07:13.516Z,6.06
2019-03-03T01:08:13.567Z,5.99
2019-03-03T01:09:13.477Z,6.03
2019-03-03T01:10:13.479Z,6.11
2019-03-03T01:11:13.443Z,6.01
2019-03-03T01:12:13.492Z,6.09
2019-03-03T01:13:13.453Z,5.97
2019-03-03T01:14:13.410Z,5.86
2019-03-03T01:15:13.415Z,5.93
2019-03-03T01:16:13.389Z,5.89
2019-03-03T01:17:13.380Z,5.90
2019-03-03T01:18:13.382Z,5.85
2019-03-03T01:19:13.377Z,5.83
2019-03-03T01:20:13.357Z,5.78
2019-03-03T01:21:13.392Z,5.75
2019-03-03T01:22:13.325Z,5.72
2019-03-03T01:23:13.323Z,5.76
2019-03-03T01:24:13.322Z,5.76
2019-03-03T01:25:13.294Z,5.74
2019-03-03T01:26:22.457Z,5.65
2019-03-03T01:27:22.502Z,5.64
2019-03-03T01:28:13.264Z,5.68
2019-03-03T01:29:13.299Z,5.74
2019-03-03T01:30:13.279Z,5.75
2019-03-03T01:31:13.228Z,5.64
2019-03-03T01:32:13.224Z,5.58
2019-03-03T01:33:13.209Z,5.64
2019-03-03T01:34:13.238Z,5.63
2019-03-03T01:35:13.196Z,5.65
2019-03-03T01:36:13.205Z,5.57
2019-03-03T01:37:13.172Z,5.65
2019-03-03T01:38:13.168Z,5.61
2019-03-03T01:39:13.143Z,5.68
2019-03-03T01:40:13.209Z,5.71
2019-03-03T01:41:13.140Z,5.65
2019-03-03T01:42:13.134Z,5.71
2019-03-03T01:43:13.103Z,5.64
2019-03-03T01:44:13.102Z,5.71
2019-03-03T01:45:13.107Z,5.76
2019-03-03T01:46:13.074Z,5.68
2019-03-03T01:47:13.075Z,5.68
2019-03-03T01:48:13.080Z,5.72
2019-03-03T01:49:13.034Z,5.72
2019-03-03T01:50:13.048Z,5.75
2019-03-03T01:51:13.024Z,5.74
2019-03-03T01:52:13.007Z,5.67
2019-03-03T01:53:13.006Z,5.68
2019-03-03T01:54:12.999Z,5.74
2019-03-03T01:55:13.015Z,5.78
2019-03-03T01:56:12.969Z,5.67
2019-03-03T01:57:12.962Z,5.64
2019-03-03T01:58:12.956Z,5.75
2019-03-03T01:59:12.939Z,5.76
2019-03-03T02:00:12.962Z,5.65
2019-03-03T02:01:12.915Z,5.78
2019-03-03T02:02:12.908Z,5.78
2019-03-03T02:03:12.888Z,5.76
2019-03-03T02:04:12.890Z,5.79
2019-03-03T02:05:12.896Z,5.76
2019-03-03T02:06:12.901Z,5.83
2019-03-03T02:07:12.850Z,5.79
2019-03-03T02:08:12.852Z,5.83
2019-03-03T02:09:12.830Z,5.79
2019-03-03T02:10:12.824Z,5.85
2019-03-03T02:11:12.875Z,5.82
2019-03-03T02:12:12.839Z,5.89
2019-03-03T02:13:12.793Z,5.74
2019-03-03T02:14:12.792Z,5.83
2019-03-03T02:15:12.762Z,5.85
2019-03-03T02:16:12.772Z,5.93
2019-03-03T02:17:12.745Z,5.97
2019-03-03T02:18:12.738Z,5.99
2019-03-03T02:19:12.722Z,5.81
2019-03-03T02:20:12.727Z,5.89
2019-03-03T02:21:12.740Z,5.91
2019-03-03T02:22:12.698Z,5.93
2019-03-03T02:23:12.682Z,5.94
2019-03-03T02:24:12.665Z,5.96
2019-03-03T02:25:12.660Z,5.96
2019-03-03T02:26:12.674Z,5.93
2019-03-03T02:27:12.648Z,6.03
2019-03-03T02:28:12.637Z,5.99
2019-03-03T02:29:12.610Z,5.99
2019-03-03T02:30:12.605Z,6.11
2019-03-03T02:31:12.598Z,6.14
2019-03-03T02:32:12.607Z,6.03
2019-03-03T02:33:12.587Z,6.04
2019-03-03T02:34:12.562Z,6.15
2019-03-03T02:35:12.553Z,6.03
2019-03-03T02:36:12.539Z,6.09
2019-03-03T02:37:12.546Z,6.12
2019-03-03T02:38:12.519Z,6.12
2019-03-03T02:39:12.514Z,6.11
2019-03-03T02:40:12.500Z,6.09
2019-03-03T02:41:12.485Z,6.08
2019-03-03T02:42:12.495Z,6.08
2019-03-03T02:43:12.472Z,6.11
2019-03-03T02:44:12.471Z,6.09
2019-03-03T02:45:12.453Z,6.04
2019-03-03T02:46:12.433Z,6.01
2019-03-03T02:47:12.440Z,6.08
2019-03-03T02:48:12.417Z,6.03
2019-03-03T02:49:12.421Z,6.08
2019-03-03T02:50:12.400Z,6.11
2019-03-03T02:51:12.391Z,6.11
2019-03-03T02:52:12.410Z,6.18
2019-03-03T02:53:12.362Z,6.11
2019-03-03T02:54:12.355Z,6.08
2019-03-03T02:55:12.340Z,6.17
2019-03-03T02:56:12.330Z,6.14
2019-03-03T02:57:12.326Z,6.11
2019-03-03T02:58:12.325Z,6.08
2019-03-03T02:59:12.298Z,6.17
2019-03-03T03:00:12.289Z,6.18
2019-03-03T03:01:12.274Z,6.12
2019-03-03T03:02:12.269Z,6.11
2019-03-03T03:03:12.284Z,6.14
2019-03-03T03:04:12.252Z,6.21
2019-03-03T03:05:12.246Z,6.08
2019-03-03T03:06:12.228Z,6.11
2019-03-03T03:07:12.211Z,6.14
2019-03-03T03:08:12.218Z,6.27
2019-03-03T03:09:12.184Z,6.17
2019-03-03T03:10:12.188Z,6.14
2019-03-03T03:11:12.172Z,6.19
2019-03-03T03:12:12.173Z,6.27
2019-03-03T03:13:12.196Z,6.21
2019-03-03T03:14:12.150Z,6.19
2019-03-03T03:15:12.122Z,6.18
2019-03-03T03:16:12.111Z,6.30
2019-03-03T03:17:12.105Z,6.30
2019-03-03T03:18:12.120Z,6.28
2019-03-03T03:19:12.086Z,6.28
2019-03-03T03:20:12.066Z,6.33
2019-03-03T03:21:12.062Z,6.34
2019-03-03T03:22:12.044Z,6.33
2019-03-03T03:23:12.049Z,6.31
2019-03-03T03:24:12.068Z,6.30
2019-03-03T03:25:12.034Z,6.33
2019-03-03T03:26:12.000Z,6.33
2019-03-03T03:27:11.998Z,6.34
2019-03-03T03:28:11.987Z,6.34
2019-03-03T03:29:11.991Z,6.40
2019-03-03T03:30:11.972Z,6.36
2019-03-03T03:31:11.970Z,6.46
2019-03-03T03:32:11.942Z,6.48
2019-03-03T03:33:11.935Z,6.43
2019-03-03T03:34:11.951Z,6.46
2019-03-03T03:35:11.926Z,6.41
2019-03-03T03:36:11.908Z,6.43
2019-03-03T03:37:11.904Z,6.48
2019-03-03T03:38:11.874Z,6.52
2019-03-03T03:39:11.886Z,6.49
2019-03-03T03:40:11.858Z,6.54
2019-03-03T03:41:11.855Z,6.44
2019-03-03T03:42:11.854Z,6.55
2019-03-03T03:43:11.841Z,6.44
2019-03-03T03:44:11.858Z,6.54
2019-03-03T03:45:11.805Z,6.56
2019-03-03T03:46:11.797Z,6.46
2019-03-03T03:47:11.793Z,6.55
2019-03-03T03:48:11.782Z,6.56
2019-03-03T03:49:11.801Z,6.56
2019-03-03T03:50:11.793Z,6.58
2019-03-03T03:51:11.739Z,6.56
2019-03-03T03:52:11.755Z,6.59
2019-03-03T03:53:11.724Z,6.59
2019-03-03T03:54:11.735Z,6.49
2019-03-03T03:55:11.721Z,6.59
2019-03-03T03:56:11.689Z,6.61
2019-03-03T03:57:11.672Z,6.61
2019-03-03T03:58:11.673Z,6.61
2019-03-03T03:59:11.667Z,6.56
2019-03-03T04:00:11.737Z,6.52
2019-03-03T04:01:11.636Z,6.59
2019-03-03T04:02:11.624Z,6.66
2019-03-03T04:03:11.612Z,6.61
2019-03-03T04:04:11.607Z,6.61
2019-03-03T04:05:11.616Z,6.64
2019-03-03T04:06:11.591Z,6.61
2019-03-03T04:07:11.568Z,6.74
2019-03-03T04:08:11.560Z,6.69
2019-03-03T04:09:11.547Z,6.74
2019-03-03T04:10:11.559Z,6.70
2019-03-03T04:11:12.521Z,6.70
2019-03-03T04:12:11.534Z,6.77
2019-03-03T04:13:11.502Z,6.74
2019-03-03T04:14:11.520Z,6.66
2019-03-03T04:15:11.485Z,6.76
2019-03-03T04:16:11.494Z,6.73
2019-03-03T04:17:11.468Z,6.77
2019-03-03T04:18:11.475Z,6.80
2019-03-03T04:19:11.445Z,6.80
2019-03-03T04:20:11.434Z,6.89
2019-03-03T04:21:11.450Z,6.79
2019-03-03T04:22:11.413Z,6.88
2019-03-03T04:23:11.410Z,6.88
2019-03-03T04:24:11.387Z,6.91
2019-03-03T04:25:11.375Z,6.88
2019-03-03T04:26:11.393Z,6.97
2019-03-03T04:27:11.365Z,6.95
2019-03-03T04:28:11.361Z,6.87
2019-03-03T04:29:11.351Z,6.92
2019-03-03T04:30:11.324Z,6.92
2019-03-03T04:31:11.633Z,6.91
2019-03-03T04:32:11.305Z,6.91
2019-03-03T04:33:11.302Z,6.98
2019-03-03T04:34:11.279Z,7.05
2019-03-03T04:35:11.300Z,7.05
2019-03-03T04:36:11.268Z,7.02
2019-03-03T04:37:11.272Z,6.98
2019-03-03T04:38:11.242Z,7.06
2019-03-03T04:39:11.242Z,6.95
2019-03-03T04:40:11.249Z,7.07
2019-03-03T04:41:11.206Z,7.06
2019-03-03T04:42:11.240Z,7.03
2019-03-03T04:43:11.194Z,7.05
2019-03-03T04:44:11.183Z,7.05
2019-03-03T04:45:11.180Z,7.03
2019-03-03T04:46:11.163Z,7.07
2019-03-03T04:47:11.186Z,6.98
2019-03-03T04:48:11.131Z,7.03
2019-03-03T04:49:11.128Z,7.05
2019-03-03T04:50:11.114Z,7.05
2019-03-03T04:51:11.104Z,7.12
2019-03-03T04:52:11.116Z,7.05
2019-03-03T04:53:11.074Z,7.13
2019-03-03T04:54:11.065Z,7.17
2019-03-03T04:55:11.054Z,7.12
2019-03-03T04:56:11.047Z,7.12
2019-03-03T04:57:11.067Z,7.16
2019-03-03T04:58:11.051Z,7.16
2019-03-03T04:59:11.022Z,7.12
2019-03-03T05:00:11.003Z,7.16
2019-03-03T05:01:10.999Z,7.17
2019-03-03T05:02:10.986Z,7.10
2019-03-03T05:03:11.001Z,7.24
2019-03-03T05:04:10.965Z,7.27
2019-03-03T05:05:10.956Z,7.31
2019-03-03T05:06:10.939Z,7.30
2019-03-03T05:07:10.942Z,7.32
2019-03-03T05:08:10.948Z,7.30
2019-03-03T05:09:10.925Z,7.35
2019-03-03T05:10:10.907Z,7.46
2019-03-03T05:11:10.886Z,7.40
2019-03-03T05:12:10.877Z,7.35
2019-03-03T05:13:10.895Z,7.34
2019-03-03T05:14:10.883Z,7.43
2019-03-03T05:15:10.863Z,7.39
2019-03-03T05:16:10.840Z,7.35
2019-03-03T05:17:10.827Z,7.42
2019-03-03T05:18:11.145Z,7.32
2019-03-03T05:19:10.814Z,7.49
2019-03-03T05:20:10.808Z,7.40
2019-03-03T05:21:10.800Z,7.45
2019-03-03T05:22:10.783Z,7.40
2019-03-03T05:23:10.783Z,7.42
2019-03-03T05:24:10.759Z,7.46
2019-03-03T05:25:10.741Z,7.42
2019-03-03T05:26:10.738Z,7.42
2019-03-03T05:27:10.713Z,7.42
2019-03-03T05:28:10.757Z,7.42
2019-03-03T05:29:10.696Z,7.35
2019-03-03T05:30:10.690Z,7.39
2019-03-03T05:31:10.681Z,7.39
2019-03-03T05:32:10.682Z,7.42
2019-03-03T05:33:10.692Z,7.42
2019-03-03T05:34:10.649Z,7.48
2019-03-03T05:35:10.631Z,7.50
2019-03-03T05:36:10.623Z,7.48
2019-03-03T05:37:10.621Z,7.50
2019-03-03T05:38:10.621Z,7.49
2019-03-03T05:39:10.607Z,7.50
2019-03-03T05:40:10.578Z,7.50
2019-03-03T05:41:10.571Z,7.53
2019-03-03T05:42:10.558Z,7.58
2019-03-03T05:43:10.570Z,7.58
2019-03-03T05:44:10.567Z,7.68
2019-03-03T05:45:10.537Z,7.67
2019-03-03T05:46:10.513Z,7.68
2019-03-03T05:47:10.510Z,7.67
2019-03-03T05:48:10.497Z,7.60
2019-03-03T05:49:10.502Z,7.57
2019-03-03T05:50:10.476Z,7.57
2019-03-03T05:51:10.466Z,7.63
2019-03-03T05:52:10.450Z,7.63
2019-03-03T05:53:10.449Z,7.61
2019-03-03T05:54:10.466Z,7.60
2019-03-03T05:55:10.434Z,7.67
2019-03-03T05:56:10.411Z,7.67
2019-03-03T05:57:10.399Z,7.64
2019-03-03T05:58:10.387Z,7.67
2019-03-03T05:59:10.411Z,7.64
2019-03-03T06:00:10.380Z,7.64
2019-03-03T06:01:10.377Z,7.63
2019-03-03T06:02:10.352Z,7.74
2019-03-03T06:03:10.343Z,7.69
2019-03-03T06:04:10.321Z,7.75
2019-03-03T06:05:10.337Z,7.71
2019-03-03T06:06:10.311Z,7.71
2019-03-03T06:07:10.313Z,7.75
2019-03-03T06:08:10.285Z,7.80
2019-03-03T06:09:10.274Z,7.75
2019-03-03T06:10:10.300Z,7.69
2019-03-03T06:11:10.254Z,7.71
2019-03-03T06:12:10.249Z,7.71
2019-03-03T06:13:10.246Z,7.77
2019-03-03T06:14:10.227Z,7.68
2019-03-03T06:15:10.233Z,7.72
2019-03-03T06:16:10.201Z,7.74
2019-03-03T06:17:10.187Z,7.85
2019-03-03T06:18:10.187Z,7.82
2019-03-03T06:19:10.190Z,7.80
2019-03-03T06:20:10.194Z,7.79
2019-03-03T06:21:10.145Z,7.83
2019-03-03T06:22:10.145Z,7.83
2019-03-03T06:23:10.122Z,7.83
2019-03-03T06:24:10.121Z,7.79
2019-03-03T06:25:10.154Z,7.86
2019-03-03T06:26:10.085Z,7.89
2019-03-03T06:27:10.083Z,7.87
2019-03-03T06:28:10.087Z,7.92
2019-03-03T06:29:10.060Z,7.89
2019-03-03T06:30:10.069Z,7.92
2019-03-03T06:31:10.065Z,8.04
2019-03-03T06:32:10.021Z,7.93
2019-03-03T06:33:10.013Z,8.02
2019-03-03T06:34:10.012Z,8.05
2019-03-03T06:35:10.003Z,7.98
2019-03-03T06:36:10.007Z,8.01
2019-03-03T06:37:09.979Z,7.98
2019-03-03T06:38:09.963Z,8.01
2019-03-03T06:39:09.982Z,8.08
2019-03-03T06:40:09.943Z,8.16
2019-03-03T06:41:09.958Z,8.12
2019-03-03T06:42:09.925Z,8.18
2019-03-03T06:43:09.912Z,8.12
2019-03-03T06:44:09.905Z,8.20
2019-03-03T06:45:09.901Z,8.23
2019-03-03T06:46:09.901Z,8.33
2019-03-03T06:47:09.871Z,8.19
2019-03-03T06:48:09.863Z,8.33
2019-03-03T06:49:09.847Z,8.29
2019-03-03T06:50:09.829Z,8.41
2019-03-03T06:51:09.843Z,8.29
2019-03-03T06:52:09.815Z,8.34
2019-03-03T06:53:09.801Z,8.28
2019-03-03T06:54:09.807Z,8.41
2019-03-03T06:55:09.784Z,8.40
2019-03-03T06:56:09.801Z,8.43
2019-03-03T06:57:09.763Z,8.41
2019-03-03T06:58:09.755Z,8.52
2019-03-03T06:59:09.751Z,8.52
2019-03-03T07:00:10.253Z,8.59
2019-03-03T07:01:09.717Z,8.53
2019-03-03T07:02:09.743Z,8.48
2019-03-03T07:03:09.696Z,8.59
2019-03-03T07:04:09.695Z,8.62
2019-03-03T07:05:09.673Z,8.63
2019-03-03T07:06:09.691Z,8.71
2019-03-03T07:07:09.670Z,8.74
2019-03-03T07:08:09.660Z,8.71
2019-03-03T07:09:09.641Z,8.71
2019-03-03T07:10:09.625Z,8.83
2019-03-03T07:11:10.146Z,8.84
2019-03-03T07:12:09.642Z,8.79
2019-03-03T07:13:09.593Z,8.86
2019-03-03T07:14:09.603Z,8.86
2019-03-03T07:15:09.569Z,8.89
2019-03-03T07:16:09.585Z,8.95
2019-03-03T07:17:09.541Z,8.94
2019-03-03T07:18:09.551Z,9.02
2019-03-03T07:19:09.522Z,9.04
2019-03-03T07:20:09.512Z,9.08
2019-03-03T07:21:09.507Z,9.08
2019-03-03T07:22:09.511Z,9.05
2019-03-03T07:23:09.509Z,9.10
2019-03-03T07:24:09.468Z,9.11
2019-03-03T07:25:09.469Z,9.17
2019-03-03T07:26:09.446Z,9.15
2019-03-03T07:27:09.450Z,9.05
2019-03-03T07:28:09.453Z,9.18
2019-03-03T07:29:09.417Z,9.18
2019-03-03T07:30:09.405Z,9.24
2019-03-03T07:31:09.416Z,9.21
2019-03-03T07:32:09.388Z,9.23
2019-03-03T07:33:09.381Z,9.32
2019-03-03T07:34:09.375Z,9.28
2019-03-03T07:35:09.363Z,9.35
2019-03-03T07:36:09.336Z,9.40
2019-03-03T07:37:09.333Z,9.42
2019-03-03T07:38:09.333Z,9.42
2019-03-03T07:39:09.341Z,9.39
2019-03-03T07:40:09.311Z,9.46
2019-03-03T07:41:09.298Z,9.47
2019-03-03T07:42:09.279Z,9.51
2019-03-03T07:43:09.265Z,9.57
2019-03-03T07:44:09.285Z,9.57
2019-03-03T07:45:09.249Z,9.60
2019-03-03T07:46:09.248Z,9.64
2019-03-03T07:47:09.257Z,9.71
2019-03-03T07:48:09.219Z,9.66
2019-03-03T07:49:09.205Z,9.64
2019-03-03T07:50:09.330Z,9.75
2019-03-03T07:51:09.190Z,9.74
2019-03-03T07:52:09.182Z,9.75
2019-03-03T07:53:09.161Z,9.83
2019-03-03T07:54:09.159Z,9.83
2019-03-03T07:55:09.170Z,9.78
2019-03-03T07:56:09.137Z,9.83
2019-03-03T07:57:09.129Z,9.83
2019-03-03T07:58:09.119Z,9.89
2019-03-03T07:59:09.094Z,9.87
2019-03-03T08:00:09.110Z,9.91
2019-03-03T08:01:09.079Z,9.97
2019-03-03T08:02:09.153Z,9.96
2019-03-03T08:03:09.065Z,10.02
2019-03-03T08:04:09.057Z,10.18
2019-03-03T08:05:09.031Z,10.05
2019-03-03T08:06:09.036Z,10.09
2019-03-03T08:07:09.019Z,10.18
2019-03-03T08:08:09.012Z,10.11
2019-03-03T08:09:08.993Z,10.22
2019-03-03T08:10:08.975Z,10.14
2019-03-03T08:11:08.991Z,10.17
2019-03-03T08:12:08.964Z,10.33
2019-03-03T08:13:09.685Z,10.30
2019-03-03T08:14:08.938Z,10.30
2019-03-03T08:15:08.935Z,10.27
2019-03-03T08:16:10.830Z,10.40
2019-03-03T08:17:08.924Z,10.45
2019-03-03T08:18:08.922Z,10.40
2019-03-03T08:19:08.902Z,10.52
2019-03-03T08:20:08.877Z,10.42
2019-03-03T08:21:08.871Z,10.45
2019-03-03T08:22:08.878Z,10.44
2019-03-03T08:23:08.840Z,10.42
2019-03-03T08:24:08.835Z,10.53
2019-03-03T08:25:08.817Z,10.55
2019-03-03T08:26:08.817Z,10.56
2019-03-03T08:27:08.829Z,10.68
2019-03-03T08:28:08.790Z,10.68
2019-03-03T08:29:08.777Z,10.64
2019-03-03T08:30:08.775Z,10.73
2019-03-03T08:31:08.769Z,10.76
2019-03-03T08:32:08.752Z,10.68
2019-03-03T08:33:08.766Z,10.70
2019-03-03T08:34:08.726Z,10.73
2019-03-03T08:35:08.712Z,10.67
2019-03-03T08:36:09.653Z,10.81
2019-03-03T08:37:08.690Z,10.81
2019-03-03T08:38:08.699Z,10.79
2019-03-03T08:39:08.694Z,10.78
2019-03-03T08:40:08.666Z,10.73
2019-03-03T08:41:08.661Z,10.71
2019-03-03T08:42:08.658Z,10.68
2019-03-03T08:43:08.658Z,10.68
2019-03-03T08:44:08.622Z,10.76
2019-03-03T08:45:08.606Z,10.86
2019-03-03T08:46:08.604Z,10.84
2019-03-03T08:47:08.590Z,10.84
2019-03-03T08:48:08.594Z,10.88
2019-03-03T08:49:08.563Z,10.88
2019-03-03T08:50:08.581Z,10.84
2019-03-03T08:51:08.552Z,10.96
2019-03-03T08:52:08.530Z,10.92
2019-03-03T08:53:08.632Z,10.84
2019-03-03T08:54:08.526Z,10.94
2019-03-03T08:55:08.496Z,10.89
2019-03-03T08:56:08.510Z,10.92
2019-03-03T08:57:08.481Z,10.92
2019-03-03T08:58:08.464Z,10.89
2019-03-03T08:59:08.475Z,10.96
2019-03-03T09:00:08.449Z,10.85
2019-03-03T09:01:08.459Z,10.68
2019-03-03T09:02:08.439Z,10.66
2019-03-03T09:03:08.416Z,10.59
2019-03-03T09:04:08.433Z,10.52
2019-03-03T09:05:08.417Z,10.45
2019-03-03T09:06:08.408Z,10.47
2019-03-03T09:07:08.382Z,10.40
2019-03-03T09:08:08.367Z,10.41
2019-03-03T09:09:08.383Z,10.42
2019-03-03T09:10:08.352Z,10.40
2019-03-03T09:11:08.346Z,10.40
2019-03-03T09:12:08.322Z,10.40
2019-03-03T09:13:08.320Z,10.42
2019-03-03T09:14:08.331Z,10.47
2019-03-03T09:15:08.284Z,10.51
2019-03-03T09:16:08.285Z,10.45
2019-03-03T09:17:08.282Z,10.44
2019-03-03T09:18:08.262Z,10.52
2019-03-03T09:19:08.254Z,10.52
2019-03-03T09:20:08.259Z,10.56
2019-03-03T09:21:08.232Z,10.55
2019-03-03T09:22:08.222Z,10.60
2019-03-03T09:23:08.203Z,10.67
2019-03-03T09:24:08.207Z,10.64
2019-03-03T09:25:08.206Z,10.70
2019-03-03T09:26:08.174Z,10.70
2019-03-03T09:27:08.172Z,10.73
2019-03-03T09:28:08.164Z,10.85
2019-03-03T09:29:08.137Z,10.94
2019-03-03T09:30:08.154Z,10.96
2019-03-03T09:31:08.141Z,11.02
2019-03-03T09:32:08.107Z,11.00
2019-03-03T09:33:08.106Z,11.09
2019-03-03T09:34:08.102Z,11.06
2019-03-03T09:35:08.110Z,11.10
2019-03-03T09:36:08.074Z,11.15
2019-03-03T09:37:08.080Z,11.09
2019-03-03T09:38:08.050Z,11.07
2019-03-03T09:39:08.041Z,11.06
2019-03-03T09:40:09.676Z,11.14
2019-03-03T09:41:08.022Z,11.19
2019-03-03T09:42:08.012Z,11.22
2019-03-03T09:43:08.010Z,11.24
2019-03-03T09:44:07.974Z,11.25
2019-03-03T09:45:07.994Z,11.29
2019-03-03T09:46:07.976Z,11.24
2019-03-03T09:47:07.946Z,11.25
2019-03-03T09:48:07.948Z,11.37
2019-03-03T09:49:07.922Z,11.29
2019-03-03T09:50:07.915Z,11.35
2019-03-03T09:51:07.925Z,11.32
2019-03-03T09:52:07.913Z,11.29
2019-03-03T09:53:07.886Z,11.35
2019-03-03T09:54:07.906Z,11.36
2019-03-03T09:55:07.861Z,11.35
2019-03-03T09:56:07.872Z,11.39
2019-03-03T09:57:07.833Z,11.37
2019-03-03T09:58:07.827Z,11.29
2019-03-03T09:59:07.838Z,11.35
2019-03-03T10:00:07.818Z,11.42
2019-03-03T10:01:07.825Z,11.35
2019-03-03T10:02:07.794Z,11.29
2019-03-03T10:03:07.774Z,11.33
2019-03-03T10:04:07.762Z,11.39
2019-03-03T10:05:07.754Z,11.36
2019-03-03T10:06:07.788Z,11.37
2019-03-03T10:07:07.730Z,11.40
2019-03-03T10:08:07.726Z,11.35
2019-03-03T10:09:07.712Z,11.42
2019-03-03T10:10:07.696Z,11.40
2019-03-03T10:11:07.705Z,11.39
2019-03-03T10:12:07.724Z,11.39
2019-03-03T10:13:07.668Z,11.43
2019-03-03T10:14:07.668Z,11.49
2019-03-03T10:15:07.657Z,11.46
2019-03-03T10:16:07.636Z,11.44
2019-03-03T10:17:07.704Z,11.47
2019-03-03T10:18:07.615Z,11.46
2019-03-03T10:19:07.626Z,11.51
2019-03-03T10:20:07.612Z,11.43
2019-03-03T10:21:07.670Z,11.42
2019-03-03T10:22:07.648Z,11.36
2019-03-03T10:23:07.588Z,11.21
2019-03-03T10:24:07.550Z,11.21
2019-03-03T10:25:07.544Z,11.09
2019-03-03T10:26:07.530Z,11.11
2019-03-03T10:27:07.560Z,11.11
2019-03-03T10:28:07.531Z,11.09
2019-03-03T10:29:07.509Z,11.10
2019-03-03T10:30:07.563Z,11.15
2019-03-03T10:31:07.462Z,11.19
2019-03-03T10:32:07.490Z,11.18
2019-03-03T10:33:07.541Z,11.24
2019-03-03T10:34:07.456Z,11.27
2019-03-03T10:35:07.437Z,11.28
2019-03-03T10:36:07.419Z,11.33
2019-03-03T10:37:07.419Z,11.33
2019-03-03T10:38:07.436Z,11.37
2019-03-03T10:39:07.392Z,11.42
2019-03-03T10:40:07.390Z,11.43
2019-03-03T10:41:07.362Z,11.37
2019-03-03T10:42:07.363Z,11.33
2019-03-03T10:43:07.427Z,11.43
2019-03-03T10:44:07.366Z,11.32
2019-03-03T10:45:07.343Z,11.27
2019-03-03T10:46:07.337Z,11.21
2019-03-03T10:47:07.300Z,11.11
2019-03-03T10:48:07.327Z,11.10
2019-03-03T10:49:07.284Z,10.99
2019-03-03T10:50:07.319Z,11.04
2019-03-03T10:51:07.258Z,10.97
2019-03-03T10:52:07.260Z,11.02
2019-03-03T10:53:07.240Z,11.03
2019-03-03T10:54:07.260Z,10.99
2019-03-03T10:55:07.214Z,11.14
2019-03-03T10:56:07.213Z,11.09
2019-03-03T10:57:07.206Z,11.11
2019-03-03T10:58:07.219Z,11.11
2019-03-03T10:59:07.211Z,11.11
2019-03-03T11:00:07.180Z,11.18
2019-03-03T11:01:07.148Z,11.25
2019-03-03T11:02:07.149Z,11.22
2019-03-03T11:03:07.137Z,11.40
2019-03-03T11:04:07.155Z,11.47
2019-03-03T11:05:07.135Z,11.44
2019-03-03T11:06:07.113Z,11.43
2019-03-03T11:07:07.100Z,11.40
2019-03-03T11:08:07.099Z,11.37
2019-03-03T11:09:07.090Z,11.42
2019-03-03T11:10:07.059Z,11.43
2019-03-03T11:11:07.064Z,11.43
2019-03-03T11:15:18.534Z,11.51
2019-03-03T11:16:14.081Z,11.52
2019-03-03T11:17:13.087Z,11.42
2019-03-03T11:18:14.080Z,11.55
2019-03-03T11:19:13.051Z,11.54
2019-03-03T11:20:13.062Z,11.46
2019-03-03T11:21:13.033Z,11.61
2019-03-03T11:22:13.036Z,11.52
2019-03-03T11:23:13.030Z,11.57
2019-03-03T11:24:13.004Z,11.64
2019-03-03T11:25:13.071Z,11.64
2019-03-03T11:26:12.979Z,11.65
2019-03-03T11:27:12.991Z,11.72
2019-03-03T11:28:12.957Z,11.76
2019-03-03T11:29:12.962Z,11.75
2019-03-03T11:30:12.941Z,11.78
2019-03-03T11:31:12.947Z,11.82
2019-03-03T11:32:12.918Z,11.85
2019-03-03T11:33:13.016Z,11.75
2019-03-03T11:34:12.895Z,11.90
2019-03-03T11:35:12.884Z,11.88
2019-03-03T11:36:13.005Z,11.91
2019-03-03T11:37:14.130Z,11.96
2019-03-03T11:38:12.846Z,11.91
2019-03-03T11:39:12.831Z,11.80
2019-03-03T11:40:12.819Z,11.88
2019-03-03T11:41:12.836Z,11.80
2019-03-03T11:42:12.808Z,11.79
2019-03-03T11:43:12.795Z,11.73
2019-03-03T11:44:12.802Z,11.65
2019-03-03T11:45:12.773Z,11.57
2019-03-03T11:46:12.793Z,11.64
2019-03-03T11:47:12.748Z,11.52
2019-03-03T11:48:12.737Z,11.54
2019-03-03T11:49:12.727Z,11.54
2019-03-03T11:50:12.714Z,11.49
2019-03-03T11:51:12.741Z,11.49
2019-03-03T11:52:12.703Z,11.49
2019-03-03T11:53:12.689Z,11.51
2019-03-03T11:54:12.669Z,11.52
2019-03-03T11:55:12.666Z,11.51
2019-03-03T11:56:12.675Z,11.44
2019-03-03T11:57:12.680Z,11.43
2019-03-03T11:58:12.653Z,11.37
2019-03-03T11:59:12.665Z,11.28
2019-03-03T12:00:12.653Z,11.24
2019-03-03T12:01:12.619Z,11.28
2019-03-03T12:02:12.609Z,11.24
2019-03-03T12:03:12.634Z,11.17
2019-03-03T12:04:12.561Z,11.14
2019-03-03T12:05:12.556Z,11.11
2019-03-03T12:06:12.548Z,11.07
2019-03-03T12:07:12.556Z,11.11
2019-03-03T12:08:12.557Z,11.07
2019-03-03T12:09:12.516Z,11.10
2019-03-03T12:10:12.499Z,11.07
2019-03-03T12:11:12.490Z,11.19
2019-03-03T12:12:12.495Z,10.97
2019-03-03T12:13:14.519Z,11.03
2019-03-03T12:14:12.450Z,11.02
2019-03-03T12:15:12.443Z,11.00
2019-03-03T12:16:12.433Z,10.92
2019-03-03T12:17:12.463Z,10.91
2019-03-03T12:18:12.409Z,10.88
2019-03-03T12:19:12.395Z,10.85
2019-03-03T12:20:12.387Z,10.88
2019-03-03T12:21:12.403Z,10.92
2019-03-03T12:22:12.405Z,10.84
2019-03-03T12:23:12.424Z,10.85
2019-03-03T12:24:12.368Z,10.81
2019-03-03T12:25:12.334Z,10.85
2019-03-03T12:26:12.343Z,10.86
2019-03-03T12:27:12.393Z,10.81
2019-03-03T12:28:12.348Z,10.81
2019-03-03T12:29:12.299Z,10.84
2019-03-03T12:30:12.300Z,10.84
2019-03-03T12:31:12.271Z,10.84
2019-03-03T12:32:12.283Z,10.85
2019-03-03T12:33:12.284Z,10.81
2019-03-03T12:34:12.287Z,10.91
2019-03-03T12:35:12.241Z,10.94
2019-03-03T12:37:13.233Z,10.91
2019-03-03T12:38:12.211Z,10.91
2019-03-03T12:39:12.241Z,10.92
2019-03-03T12:40:12.171Z,10.92
2019-03-03T12:41:12.198Z,11.00
2019-03-03T12:42:12.145Z,11.03
2019-03-03T12:43:12.154Z,11.09
2019-03-03T12:48:31.274Z,11.17
2019-03-03T12:49:31.288Z,11.15
2019-03-03T12:50:31.275Z,11.17
2019-03-03T12:51:31.257Z,11.14
2019-03-03T12:53:32.222Z,11.24
2019-03-03T12:54:31.222Z,11.18
2019-03-03T12:55:31.197Z,11.10
2019-03-03T12:56:31.192Z,11.22
2019-03-03T12:57:31.235Z,11.19
2019-03-03T12:58:31.176Z,11.19
2019-03-03T12:59:31.182Z,11.21
2019-03-03T13:00:31.161Z,11.22
2019-03-03T13:01:31.133Z,11.15
2019-03-03T13:02:31.114Z,11.15
2019-03-03T13:03:31.118Z,11.17
2019-03-03T13:04:31.139Z,11.19
2019-03-03T13:05:31.087Z,11.19
2019-03-03T13:06:31.086Z,11.19
2019-03-03T13:07:31.064Z,11.15
2019-03-03T13:08:31.053Z,11.18
2019-03-03T13:09:31.051Z,11.25
2019-03-03T13:10:31.058Z,11.14
2019-03-03T13:11:31.026Z,11.18
2019-03-03T13:12:31.009Z,11.11
2019-03-03T13:13:30.997Z,11.18
2019-03-03T13:14:30.985Z,11.17
2019-03-03T13:15:31.048Z,11.19
2019-03-03T13:16:30.967Z,11.21
2019-03-03T13:17:30.967Z,11.21